Morning Lady — 3FKC3 — position and weather

sailwx.info

Track history (hours):
 
Tides and Currents Weather Stations Pressure Air Temp Water Temp Dewpoint Dewpoint Depression Visibility Wind Speed Wind Dir Waves Ship Positions

Morning Lady

Last reported at 2014-Dec-19 17:33 UTC. Time now 2014-Dec-20 00:51 UTC.
Position N 35°12' E 139°46'.

Length 234 m; draft 9.7 m.

Type: Ship. MMSI: 356473000.

Date/timePositionNaut miles runAvg speedWind from/ knotsBaromVisibWave heightAir tempDewpointWater temp
2014-Dec-19 17:33N 35°12' E 139°46'1212.3
2014-Dec-19 16:33N 35°24' E 139°42'5 4.6
2014-Dec-19 15:32N 35°28' E 139°41'0 0.0
2014-Dec-19 14:34N 35°28' E 139°41'0 0.0
2014-Dec-19 13:34N 35°28' E 139°41'0 0.0
2014-Dec-19 12:34N 35°28' E 139°41'0 0.0
2014-Dec-19 11:34N 35°28' E 139°41'0 0.0
2014-Dec-19 10:33N 35°28' E 139°41'0 0.0
2014-Dec-19 09:33N 35°28' E 139°41'1 1.1
2014-Dec-19 08:33N 35°28' E 139°42'7 6.7
2014-Dec-19 07:34N 35°22' E 139°45'1211.5
2014-Dec-19 06:33N 35°10' E 139°47'9 8.2
2014-Dec-19 05:24N 35°02' E 139°41'  
2014-Dec-09 18:31N 37°23' E 126°33'  
Track history (hours):
 
Tides and Currents Weather Stations Pressure Air Temp Water Temp Dewpoint Dewpoint Depression Visibility Wind Speed Wind Dir Waves Ship Positions

Morning Lady

Last reported at 2014-Dec-19 17:33 UTC. Time now 2014-Dec-20 00:51 UTC.
Position N 35°12' E 139°46'.

Length 234 m; draft 9.7 m.

Type: Ship. MMSI: 356473000.

Date/timePositionNaut miles runAvg speedWind from/ knotsBaromVisibWave heightAir tempDewpointWater temp
2014-Dec-19 17:33N 35°12' E 139°46'1212.3
2014-Dec-19 16:33N 35°24' E 139°42'5 4.6
2014-Dec-19 15:32N 35°28' E 139°41'0 0.0
2014-Dec-19 14:34N 35°28' E 139°41'0 0.0
2014-Dec-19 13:34N 35°28' E 139°41'0 0.0
2014-Dec-19 12:34N 35°28' E 139°41'0 0.0
2014-Dec-19 11:34N 35°28' E 139°41'0 0.0
2014-Dec-19 10:33N 35°28' E 139°41'0 0.0
2014-Dec-19 09:33N 35°28' E 139°41'1 1.1
2014-Dec-19 08:33N 35°28' E 139°42'7 6.7
2014-Dec-19 07:34N 35°22' E 139°45'1211.5
2014-Dec-19 06:33N 35°10' E 139°47'9 8.2
2014-Dec-19 05:24N 35°02' E 139°41'  
2014-Dec-09 18:31N 37°23' E 126°33'  

Dump ship's entire track history